Sarles, North Dakota
Current Conditions -  °F | °C
As of 2:15 AM on Monday 24 Nov 2014 (Local Time) from K06D Reporting Station
Light Snow Light Snow  
Wind Chill: -15°   Ceiling: 1100
Heat Index:   Visibility: 10mi
Dew Point:   Wind: 24mph
Humidity: 85%   Direction: 340°NNW
Pressure: 29.68"   Gusts: 35mph
Location:  48.95°N, 99°W
Report Text: K06D 240815Z AUTO 34021G30KT 10SM -SN BKN011 M14/M16 A2968 RMK AO2
Loading
Personal Weather Stations






























Interactive Weather Map New forecast layout! Learn more

10-Day Weather Forecast

Advertisements
Track Severe Weather on mobile